Time;durP1;ratioP1;P1;durP2;ratioP2;P2;SDS_P1;SDS_P2;PMS_P1;PMS_P2;Temp;Humidity;BMP_temperature;BMP_pressure;BME280_temperature;BME280_humidity;BME280_pressure;Samples;Min_cycle;Max_cycle;Signal;HPM_P1;HPM_P2
2021/07/26 00:01:14;;;;;;;10.15;6.63;;;665.90;2176.00;;;;;;5074107;28;20032;-70
2021/07/26 00:03:40;;;;;;;10.00;5.93;;;665.90;2201.60;;;;;;5069521;28;20030;-70
2021/07/26 00:06:05;;;;;;;9.23;5.50;;;665.90;2176.00;;;;;;5079443;28;20024;-69
2021/07/26 00:08:31;;;;;;;9.68;5.85;;;665.80;2201.60;;;;;;5066039;28;20037;-69
2021/07/26 00:11:05;;;;;;;8.40;6.22;;;665.80;2201.60;;;;;;5077854;28;20028;-69
2021/07/26 00:13:33;;;;;;;8.20;5.93;;;665.80;2201.60;;;;;;5070328;28;20051;-70
2021/07/26 00:15:59;;;;;;;7.57;5.20;;;665.80;2201.60;;;;;;5068954;28;20029;-69
2021/07/26 00:18:27;;;;;;;11.73;5.70;;;665.70;2201.60;;;;;;5077447;28;20041;-69
2021/07/26 00:20:53;;;;;;;8.05;5.15;;;665.70;2201.60;;;;;;5071183;28;20330;-69
2021/07/26 00:23:19;;;;;;;8.98;6.22;;;665.70;2201.60;;;;;;5059422;28;20067;-69
2021/07/26 00:25:45;;;;;;;8.88;5.78;;;665.60;2227.20;;;;;;5058225;28;20024;-70
2021/07/26 00:28:11;;;;;;;7.88;6.00;;;665.60;2201.60;;;;;;5067365;28;20142;-69
2021/07/26 00:30:37;;;;;;;7.88;5.75;;;665.60;2227.20;;;;;;5058821;28;20021;-70
2021/07/26 00:33:47;;;;;;;7.75;6.03;;;665.60;2227.20;;;;;;5066682;28;20024;-70
2021/07/26 00:36:13;;;;;;;12.52;6.28;;;640.90;2201.60;;;;;;5007257;28;20084;-70
2021/07/26 00:38:39;;;;;;;11.25;5.72;;;640.90;2201.60;;;;;;5018111;28;20038;-69
2021/07/26 00:41:05;;;;;;;13.50;5.40;;;640.90;2201.60;;;;;;5030365;28;20029;-69
2021/07/26 00:43:30;;;;;;;10.07;6.68;;;640.90;2201.60;;;;;;5037874;28;20037;-69
2021/07/26 00:45:56;;;;;;;8.98;5.63;;;640.90;2201.60;;;;;;5038027;28;20025;-69
2021/07/26 00:48:22;;;;;;;13.20;5.65;;;640.90;2176.00;;;;;;5026681;28;20100;-69
2021/07/26 00:50:48;;;;;;;8.35;5.72;;;640.90;2176.00;;;;;;5029280;28;20037;-71
2021/07/26 00:53:13;;;;;;;7.85;5.53;;;640.90;2176.00;;;;;;5030192;28;20100;-72
2021/07/26 00:55:41;;;;;;;10.60;6.07;;;640.90;2176.00;;;;;;5020566;28;20172;-72
2021/07/26 00:58:07;;;;;;;16.23;5.80;;;640.90;2201.60;;;;;;5033623;28;20048;-72
2021/07/26 01:00:33;;;;;;;9.05;5.82;;;640.90;2176.00;;;;;;5015616;28;20419;-72
2021/07/26 01:02:59;;;;;;;7.13;5.40;;;640.80;2176.00;;;;;;5032830;28;20044;-72
2021/07/26 01:05:25;;;;;;;8.48;5.75;;;640.90;2201.60;;;;;;5002063;28;20026;-72
2021/07/26 01:07:50;;;;;;;9.68;5.90;;;640.80;2176.00;;;;;;5024945;28;20040;-73
2021/07/26 01:10:16;;;;;;;11.88;6.05;;;640.90;2176.00;;;;;;5069953;28;20112;-71
2021/07/26 01:12:42;;;;;;;13.90;6.13;;;640.90;2176.00;;;;;;5080225;28;20058;-72
2021/07/26 01:15:09;;;;;;;8.20;5.03;;;640.90;2176.00;;;;;;5076552;28;20028;-72
2021/07/26 01:18:22;;;;;;;13.15;6.20;;;640.90;2176.00;;;;;;5071690;28;20021;-72
2021/07/26 01:20:52;;;;;;;9.10;5.32;;;665.60;2201.60;;;;;;4982373;28;20030;-72
2021/07/26 01:23:17;;;;;;;10.70;5.55;;;665.60;2176.00;;;;;;4994007;28;20128;-72
2021/07/26 01:25:43;;;;;;;9.60;5.72;;;665.60;2176.00;;;;;;4997220;28;20528;-72
2021/07/26 01:28:12;;;;;;;10.75;5.55;;;665.60;2176.00;;;;;;4994188;28;20761;-71
2021/07/26 01:30:38;;;;;;;8.65;4.88;;;665.60;2150.40;;;;;;4992430;28;20066;-72
2021/07/26 01:33:08;;;;;;;10.57;6.07;;;665.70;2150.40;;;;;;5001898;28;20476;-72
2021/07/26 01:35:34;;;;;;;10.18;5.43;;;665.80;2150.40;;;;;;5008087;28;20025;-72
2021/07/26 01:37:59;;;;;;;9.15;5.85;;;665.80;2150.40;;;;;;5009742;28;20445;-72
2021/07/26 01:40:25;;;;;;;7.45;4.90;;;665.80;2124.80;;;;;;5011189;28;20022;-72
2021/07/26 01:43:00;;;;;;;11.30;6.10;;;665.80;2124.80;;;;;;5009923;28;20068;-72
2021/07/26 01:45:26;;;;;;;11.20;5.97;;;665.80;2124.80;;;;;;5002609;28;20872;-72
2021/07/26 01:47:55;;;;;;;17.02;5.95;;;665.90;2124.80;;;;;;4988507;28;20038;-72
2021/07/26 01:50:22;;;;;;;7.93;5.15;;;665.90;2124.80;;;;;;4990416;28;20117;-72
2021/07/26 01:52:49;;;;;;;8.93;5.07;;;665.80;2124.80;;;;;;4981327;28;20125;-72
2021/07/26 01:55:15;;;;;;;7.72;5.15;;;665.80;2124.80;;;;;;4991699;28;20019;-72
2021/07/26 01:57:42;;;;;;;9.38;6.05;;;665.80;2150.40;;;;;;5048206;28;20474;-72
2021/07/26 02:00:08;;;;;;;8.40;5.22;;;665.80;2150.40;;;;;;5068761;28;20387;-72
2021/07/26 02:02:34;;;;;;;9.75;5.82;;;665.80;2150.40;;;;;;5068090;28;20024;-72
2021/07/26 02:04:59;;;;;;;7.38;5.75;;;665.80;2150.40;;;;;;5068865;28;20484;-72
2021/07/26 02:07:25;;;;;;;8.20;5.20;;;665.70;2124.80;;;;;;5073351;28;20021;-73
2021/07/26 02:09:51;;;;;;;10.05;5.40;;;665.70;2150.40;;;;;;5068658;28;20036;-72
2021/07/26 02:12:17;;;;;;;8.43;5.47;;;665.70;2150.40;;;;;;5068017;28;20029;-72
2021/07/26 02:14:43;;;;;;;9.10;6.20;;;665.70;2124.80;;;;;;5066409;28;20042;-72
2021/07/26 02:17:09;;;;;;;5.75;5.13;;;665.60;2150.40;;;;;;5069978;28;20099;-72
2021/07/26 02:19:35;;;;;;;12.60;5.20;;;665.60;2150.40;;;;;;5069274;28;20448;-72
2021/07/26 02:22:00;;;;;;;8.82;4.85;;;640.90;2124.80;;;;;;5064887;28;20108;-72
2021/07/26 02:24:26;;;;;;;8.98;6.00;;;640.90;2124.80;;;;;;5069172;28;20103;-72
2021/07/26 02:26:52;;;;;;;9.43;5.80;;;640.90;2099.20;;;;;;5065283;28;20059;-72
2021/07/26 02:29:18;;;;;;;6.50;4.90;;;640.90;2099.20;;;;;;5067848;28;20403;-72
2021/07/26 02:31:45;;;;;;;9.70;5.20;;;640.80;2099.20;;;;;;5058187;28;20460;-72
2021/07/26 02:34:10;;;;;;;13.70;5.10;;;640.90;2073.60;;;;;;5072677;28;20099;-72
2021/07/26 02:36:38;;;;;;;17.50;5.35;;;640.80;2073.60;;;;;;5086861;28;20127;-72
2021/07/26 02:39:04;;;;;;;8.48;5.15;;;640.90;2073.60;;;;;;5072490;28;20029;-72
2021/07/26 02:41:30;;;;;;;10.32;4.90;;;640.90;2073.60;;;;;;5087350;28;20487;-71
2021/07/26 02:43:56;;;;;;;9.32;5.20;;;665.60;2073.60;;;;;;5070061;28;20029;-72
2021/07/26 02:46:22;;;;;;;7.50;4.72;;;665.60;2073.60;;;;;;5072280;28;20087;-72
2021/07/26 02:48:47;;;;;;;9.07;5.30;;;665.70;2073.60;;;;;;5071799;28;20021;-72
2021/07/26 02:51:14;;;;;;;9.35;5.43;;;665.70;2048.00;;;;;;5072320;28;20035;-72
2021/07/26 02:53:41;;;;;;;13.00;5.20;;;665.80;2048.00;;;;;;5071661;28;20021;-72
2021/07/26 02:56:09;;;;;;;7.85;4.88;;;665.80;2048.00;;;;;;5072051;28;20399;-72
2021/07/26 02:58:35;;;;;;;12.40;5.28;;;665.90;2022.40;;;;;;5071280;28;20064;-72
2021/07/26 03:01:01;;;;;;;6.85;4.30;;;665.90;2048.00;;;;;;5072242;28;20024;-72
2021/07/26 03:03:26;;;;;;;10.25;5.03;;;666.00;2022.40;;;;;;5071393;28;20032;-72
2021/07/26 03:05:52;;;;;;;7.95;5.57;;;666.00;2099.20;;;;;;5071649;28;20379;-72
2021/07/26 03:08:18;;;;;;;10.63;5.30;;;665.90;2099.20;;;;;;5070814;28;20025;-72
2021/07/26 03:10:44;;;;;;;11.32;5.50;;;665.80;2099.20;;;;;;5070991;28;20474;-72
2021/07/26 03:13:10;;;;;;;9.38;5.82;;;665.70;2099.20;;;;;;5071241;28;20020;-72
2021/07/26 03:15:36;;;;;;;9.15;5.57;;;665.60;2150.40;;;;;;5070718;28;20039;-72
2021/07/26 03:18:02;;;;;;;7.38;5.13;;;640.90;2124.80;;;;;;5071137;28;20020;-72
2021/07/26 03:20:28;;;;;;;14.00;5.32;;;640.80;2124.80;;;;;;5086127;28;20028;-72
2021/07/26 03:23:00;;;;;;;10.38;5.03;;;640.70;2099.20;;;;;;5086736;28;20501;-72
2021/07/26 03:25:27;;;;;;;9.43;5.68;;;640.70;2099.20;;;;;;5070977;28;20051;-72
2021/07/26 03:27:53;;;;;;;11.75;5.18;;;640.70;2073.60;;;;;;5086390;28;20075;-72
2021/07/26 03:30:20;;;;;;;10.23;5.05;;;640.80;2048.00;;;;;;5082689;28;20029;-72
2021/07/26 03:32:46;;;;;;;9.95;5.00;;;640.90;2048.00;;;;;;5072513;28;20021;-72
2021/07/26 03:35:13;;;;;;;10.77;5.50;;;665.60;2048.00;;;;;;5069514;28;20025;-72
2021/07/26 03:37:39;;;;;;;11.05;6.45;;;665.60;2048.00;;;;;;5069596;28;20095;-72
2021/07/26 03:40:06;;;;;;;6.47;4.80;;;665.70;2022.40;;;;;;5069876;28;20146;-72
2021/07/26 03:42:36;;;;;;;8.75;5.40;;;665.80;2022.40;;;;;;5070336;28;20025;-72
2021/07/26 03:45:03;;;;;;;9.07;5.05;;;665.80;1996.80;;;;;;5061083;28;20033;-72
2021/07/26 03:47:29;;;;;;;9.85;5.30;;;665.90;1996.80;;;;;;5065462;28;20055;-72
2021/07/26 03:49:54;;;;;;;8.68;5.47;;;665.90;1996.80;;;;;;5072116;28;20459;-72
2021/07/26 03:52:20;;;;;;;8.73;5.30;;;665.90;1971.20;;;;;;5074078;28;20029;-72
2021/07/26 03:54:46;;;;;;;8.13;5.32;;;665.90;1996.80;;;;;;5078068;28;20033;-72
2021/07/26 03:57:11;;;;;;;6.95;5.07;;;665.90;1996.80;;;;;;5065204;28;20148;-73
2021/07/26 03:59:37;;;;;;;7.57;4.97;;;665.90;1996.80;;;;;;5070147;28;20047;-73
2021/07/26 04:02:04;;;;;;;9.82;5.95;;;666.00;1996.80;;;;;;5070937;28;20020;-73
2021/07/26 04:04:29;;;;;;;10.10;4.78;;;666.10;1971.20;;;;;;5063947;28;20059;-72
2021/07/26 04:07:01;;;;;;;7.00;5.07;;;666.10;1971.20;;;;;;5067152;28;20048;-73
2021/07/26 04:09:33;;;;;;;7.03;4.97;;;666.10;1971.20;;;;;;5062139;28;20036;-72
2021/07/26 04:12:08;;;;;;;7.05;4.78;;;666.10;1996.80;;;;;;5066008;28;20116;-72
2021/07/26 04:14:39;;;;;;;11.73;5.18;;;666.10;1971.20;;;;;;5063197;28;20033;-72
2021/07/26 04:17:05;;;;;;;9.18;4.85;;;666.10;1996.80;;;;;;5067145;28;20017;-72
2021/07/26 04:19:31;;;;;;;7.90;4.63;;;666.10;1996.80;;;;;;5066881;28;20601;-72
2021/07/26 04:21:58;;;;;;;11.23;5.28;;;666.10;1996.80;;;;;;5064031;28;20027;-73
2021/07/26 04:24:24;;;;;;;11.88;5.47;;;666.00;1996.80;;;;;;5064419;28;20062;-72
2021/07/26 04:26:50;;;;;;;10.95;6.28;;;666.00;1996.80;;;;;;5066955;28;20035;-72
2021/07/26 04:29:15;;;;;;;6.85;4.90;;;666.00;1996.80;;;;;;5064294;28;20044;-72
2021/07/26 04:31:43;;;;;;;6.88;5.18;;;666.10;1996.80;;;;;;5054368;28;20521;-72
2021/07/26 04:34:09;;;;;;;7.45;4.85;;;666.20;1996.80;;;;;;5063922;28;20017;-72
2021/07/26 04:36:35;;;;;;;7.15;4.82;;;666.20;1996.80;;;;;;5056225;28;20024;-72
2021/07/26 04:39:00;;;;;;;10.10;4.30;;;666.30;1971.20;;;;;;5055211;28;20044;-72
2021/07/26 04:41:26;;;;;;;9.13;4.72;;;666.40;1971.20;;;;;;5080370;28;20025;-72
2021/07/26 04:43:52;;;;;;;7.82;4.50;;;666.40;1971.20;;;;;;5062993;28;20063;-72
2021/07/26 04:46:17;;;;;;;7.95;5.22;;;666.40;1971.20;;;;;;5062910;28;20032;-72
2021/07/26 04:48:43;;;;;;;6.70;5.38;;;666.30;1996.80;;;;;;5059088;28;20051;-72
2021/07/26 04:51:09;;;;;;;8.98;5.57;;;666.30;1996.80;;;;;;5059091;28;20033;-72
2021/07/26 04:53:35;;;;;;;8.55;5.32;;;666.30;1996.80;;;;;;5059600;28;20092;-72
2021/07/26 04:56:00;;;;;;;10.32;5.78;;;666.40;1996.80;;;;;;5064863;28;20025;-72
2021/07/26 04:58:26;;;;;;;8.90;4.35;;;666.40;1971.20;;;;;;5062822;28;20054;-72
2021/07/26 05:00:52;;;;;;;7.65;5.40;;;666.30;1971.20;;;;;;5057378;28;20062;-72
2021/07/26 05:03:18;;;;;;;7.20;5.00;;;666.30;1971.20;;;;;;5069078;28;20025;-72
2021/07/26 05:05:44;;;;;;;9.82;5.50;;;666.40;1971.20;;;;;;5065981;28;20410;-72
2021/07/26 05:08:10;;;;;;;6.55;4.85;;;666.40;1971.20;;;;;;5053862;28;20083;-72
2021/07/26 05:10:36;;;;;;;6.85;4.60;;;666.40;1971.20;;;;;;5078821;28;20069;-72
2021/07/26 05:13:01;;;;;;;7.65;5.60;;;666.50;1971.20;;;;;;5057841;28;20494;-73
2021/07/26 05:15:28;;;;;;;9.05;5.00;;;691.20;1971.20;;;;;;5069325;28;20036;-73
2021/07/26 05:17:53;;;;;;;10.48;5.53;;;691.30;1945.60;;;;;;5069939;28;20039;-73
2021/07/26 05:20:19;;;;;;;11.77;5.50;;;691.40;1945.60;;;;;;5065068;28;20472;-73
2021/07/26 05:22:45;;;;;;;11.10;5.18;;;691.50;1945.60;;;;;;5069345;28;20138;-73
2021/07/26 05:25:11;;;;;;;9.32;6.15;;;691.50;1920.00;;;;;;5063763;28;20618;-72
2021/07/26 05:27:37;;;;;;;8.85;4.93;;;691.50;1920.00;;;;;;5072500;28;20521;-72
2021/07/26 05:30:06;;;;;;;14.30;5.78;;;691.70;1920.00;;;;;;5058401;28;20387;-72
2021/07/26 05:32:32;;;;;;;10.48;5.13;;;691.90;1920.00;;;;;;5056985;28;20495;-73
2021/07/26 05:34:58;;;;;;;6.90;5.68;;;691.90;1894.40;;;;;;5071698;28;20032;-72
2021/07/26 05:37:24;;;;;;;7.65;5.47;;;692.00;1894.40;;;;;;5069328;28;20048;-72
2021/07/26 05:39:49;;;;;;;8.65;5.53;;;716.80;1920.00;;;;;;5068126;28;20032;-70
2021/07/26 05:42:16;;;;;;;8.85;5.03;;;716.90;1920.00;;;;;;5073554;28;20046;-70
2021/07/26 05:44:43;;;;;;;8.30;5.40;;;717.00;1894.40;;;;;;5072307;28;20107;-70
2021/07/26 05:47:10;;;;;;;8.60;5.05;;;717.10;1894.40;;;;;;5071512;28;20131;-71
2021/07/26 05:49:37;;;;;;;9.30;5.32;;;717.20;1920.00;;;;;;5056300;28;20119;-71
2021/07/26 05:52:03;;;;;;;8.13;5.57;;;717.20;1894.40;;;;;;5069428;28;20017;-70
2021/07/26 05:54:29;;;;;;;9.02;4.63;;;717.30;1920.00;;;;;;5057147;28;20021;-70
2021/07/26 05:56:55;;;;;;;10.55;4.90;;;717.40;1920.00;;;;;;5059521;28;20071;-71
2021/07/26 05:59:21;;;;;;;9.48;5.72;;;717.50;1920.00;;;;;;5059162;28;20036;-70
2021/07/26 06:01:47;;;;;;;10.93;5.80;;;717.70;1894.40;;;;;;5065934;28;20660;-70
2021/07/26 06:04:21;;;;;;;12.40;6.30;;;742.40;1920.00;;;;;;5070446;28;20047;-70
2021/07/26 06:06:49;;;;;;;11.48;6.78;;;742.60;1920.00;;;;;;5069194;28;20024;-70
2021/07/26 06:09:15;;;;;;;8.82;5.65;;;742.80;1920.00;;;;;;5066186;28;20041;-71
2021/07/26 06:11:42;;;;;;;6.28;5.20;;;743.10;1894.40;;;;;;5053244;28;20035;-71
2021/07/26 06:14:08;;;;;;;11.02;5.78;;;743.20;1868.80;;;;;;5067831;28;20055;-70
2021/07/26 06:16:34;;;;;;;9.65;6.05;;;768.10;1868.80;;;;;;5067713;28;20040;-71
2021/07/26 06:19:07;;;;;;;10.32;5.43;;;768.00;1868.80;;;;;;5071222;28;20054;-71
2021/07/26 06:21:33;;;;;;;10.52;5.90;;;743.10;1894.40;;;;;;5072043;28;20021;-70
2021/07/26 06:23:58;;;;;;;10.35;5.55;;;743.00;1894.40;;;;;;5070216;28;20075;-70
2021/07/26 06:26:24;;;;;;;7.10;5.72;;;742.90;1894.40;;;;;;5069479;28;20491;-70
2021/07/26 06:28:51;;;;;;;12.05;5.80;;;742.90;1894.40;;;;;;5069628;28;20094;-71
2021/07/26 06:31:17;;;;;;;9.05;6.25;;;742.90;1894.40;;;;;;5069562;28;20032;-71
2021/07/26 06:33:43;;;;;;;13.80;7.18;;;742.90;1894.40;;;;;;5074068;28;20021;-70
2021/07/26 06:36:08;;;;;;;8.70;5.43;;;743.00;1894.40;;;;;;5065160;28;20028;-71
2021/07/26 06:38:36;;;;;;;11.48;5.68;;;743.00;1894.40;;;;;;5067732;28;20024;-70
2021/07/26 06:41:02;;;;;;;11.07;5.60;;;743.00;1894.40;;;;;;5072465;28;20539;-70
2021/07/26 06:43:27;;;;;;;11.82;5.78;;;743.30;1894.40;;;;;;5069155;28;20040;-70
2021/07/26 06:45:53;;;;;;;10.70;5.70;;;768.10;1868.80;;;;;;5069343;28;20821;-70
2021/07/26 06:48:21;;;;;;;15.23;5.97;;;768.20;1843.20;;;;;;5068783;28;20399;-70
2021/07/26 06:50:47;;;;;;;13.70;6.05;;;768.30;1843.20;;;;;;5069344;28;20028;-72
2021/07/26 06:53:12;;;;;;;17.90;8.88;;;768.30;1843.20;;;;;;5069596;28;20375;-70
2021/07/26 06:55:38;;;;;;;11.10;6.45;;;768.50;1843.20;;;;;;5067563;28;20078;-69
2021/07/26 06:58:04;;;;;;;14.88;8.00;;;768.80;1817.60;;;;;;5067948;28;20028;-70
2021/07/26 07:00:31;;;;;;;11.02;6.90;;;793.80;1843.20;;;;;;5067959;28;20109;-70
2021/07/26 07:02:57;;;;;;;9.80;5.18;;;793.80;1817.60;;;;;;5069663;28;20524;-70
2021/07/26 07:05:23;;;;;;;17.30;9.63;;;793.90;1817.60;;;;;;5063629;28;20092;-70
2021/07/26 07:07:49;;;;;;;19.60;9.98;;;794.30;1792.00;;;;;;5068035;28;20162;-70
2021/07/26 07:10:14;;;;;;;17.05;7.47;;;794.30;1766.40;;;;;;5069397;28;20429;-70
2021/07/26 07:12:40;;;;;;;14.70;6.75;;;794.20;1766.40;;;;;;5071005;28;20020;-70
2021/07/26 07:15:07;;;;;;;19.05;8.10;;;794.30;1766.40;;;;;;5068657;28;20027;-70
2021/07/26 07:17:33;;;;;;;12.63;6.60;;;819.20;1766.40;;;;;;5086449;28;20019;-70
2021/07/26 07:19:59;;;;;;;10.52;6.22;;;794.50;1740.80;;;;;;5062299;28;20041;-70
2021/07/26 07:22:24;;;;;;;11.45;6.50;;;819.20;1740.80;;;;;;5069338;28;20032;-70
2021/07/26 07:24:50;;;;;;;10.35;5.80;;;819.40;1715.20;;;;;;5060928;28;20025;-70
2021/07/26 07:27:16;;;;;;;8.00;5.50;;;819.40;1715.20;;;;;;5072496;28;20518;-70
2021/07/26 07:29:42;;;;;;;9.32;5.50;;;819.20;1715.20;;;;;;5064490;28;20071;-70
2021/07/26 07:32:12;;;;;;;9.85;6.00;;;794.40;1715.20;;;;;;5068544;28;20066;-70
2021/07/26 07:34:39;;;;;;;8.80;5.20;;;794.30;1715.20;;;;;;5069209;28;20386;-70
2021/07/26 07:37:06;;;;;;;12.30;5.47;;;794.30;1715.20;;;;;;5084580;28;20165;-70
2021/07/26 07:39:32;;;;;;;14.13;5.97;;;819.20;1715.20;;;;;;5066560;28;20029;-70
2021/07/26 07:41:57;;;;;;;7.63;5.85;;;794.40;1740.80;;;;;;5063398;28;20446;-70
2021/07/26 07:44:29;;;;;;;11.50;5.25;;;794.20;1740.80;;;;;;5069697;28;20095;-70
2021/07/26 07:46:55;;;;;;;7.35;4.78;;;794.20;1740.80;;;;;;5053228;28;20067;-69
2021/07/26 07:49:21;;;;;;;7.93;5.40;;;794.30;1740.80;;;;;;5070450;28;20035;-69
2021/07/26 07:51:48;;;;;;;10.68;5.43;;;794.40;1740.80;;;;;;5073027;28;20427;-69
2021/07/26 07:54:14;;;;;;;6.65;5.28;;;819.60;1740.80;;;;;;5064328;28;20024;-70
2021/07/26 07:56:42;;;;;;;8.07;5.47;;;819.90;1689.60;;;;;;5067028;28;20463;-70
2021/07/26 07:59:09;;;;;;;12.38;6.35;;;820.00;1664.00;;;;;;5069813;28;20056;-70
2021/07/26 08:01:35;;;;;;;8.38;5.63;;;844.80;1689.60;;;;;;5073628;28;20028;-70
2021/07/26 08:04:01;;;;;;;10.75;5.78;;;844.90;1689.60;;;;;;5070544;28;20105;-70
2021/07/26 08:06:27;;;;;;;7.85;4.72;;;845.00;1664.00;;;;;;5072686;28;20392;-70
2021/07/26 08:08:52;;;;;;;8.05;4.97;;;845.30;1664.00;;;;;;5067322;28;20029;-70
2021/07/26 08:11:27;;;;;;;9.77;5.47;;;845.50;1664.00;;;;;;5070630;28;20532;-70
2021/07/26 08:13:52;;;;;;;11.13;6.55;;;845.40;1664.00;;;;;;5078048;28;20020;-70
2021/07/26 08:16:23;;;;;;;11.23;5.45;;;845.30;1689.60;;;;;;5068900;28;20128;-70
2021/07/26 08:18:49;;;;;;;8.63;5.88;;;844.90;1664.00;;;;;;5069261;28;20028;-70
2021/07/26 08:21:15;;;;;;;14.35;6.35;;;819.90;1664.00;;;;;;5061549;28;20135;-70
2021/07/26 08:23:41;;;;;;;13.45;5.75;;;820.00;1638.40;;;;;;5067416;28;20024;-70
2021/07/26 08:26:06;;;;;;;8.32;5.50;;;820.10;1664.00;;;;;;5066855;28;20024;-70
2021/07/26 08:28:32;;;;;;;15.60;6.47;;;844.80;1664.00;;;;;;5063437;28;20048;-70
2021/07/26 08:31:00;;;;;;;11.05;5.47;;;845.00;1664.00;;;;;;5071014;28;20033;-70
2021/07/26 08:33:26;;;;;;;10.75;5.05;;;845.20;1664.00;;;;;;5067443;28;20020;-70
2021/07/26 08:35:52;;;;;;;10.40;5.47;;;845.40;1664.00;;;;;;5068437;28;20050;-70
2021/07/26 08:38:18;;;;;;;11.05;6.32;;;870.40;1664.00;;;;;;5094054;28;20398;-70
2021/07/26 08:40:53;;;;;;;9.77;5.85;;;870.60;1638.40;;;;;;5071240;28;20037;-70
2021/07/26 08:43:25;;;;;;;;;;;870.70;1638.40;;;;;;5070959;28;20020;-70
2021/07/26 08:45:51;;;;;;;12.07;7.35;;;870.90;1638.40;;;;;;5056105;28;19943;-70
2021/07/26 08:48:17;;;;;;;11.70;7.45;;;870.60;1638.40;;;;;;5070943;28;20064;-70
2021/07/26 08:50:44;;;;;;;8.27;6.75;;;870.60;1638.40;;;;;;5073274;28;20021;-70
2021/07/26 08:53:10;;;;;;;10.32;8.48;;;870.40;1664.00;;;;;;5076667;28;20028;-70
2021/07/26 08:55:35;;;;;;;11.50;8.13;;;870.40;1664.00;;;;;;5072214;28;20498;-70
2021/07/26 08:58:03;;;;;;;11.18;7.18;;;870.40;1664.00;;;;;;5083628;28;20043;-70
2021/07/26 09:00:28;;;;;;;13.35;7.38;;;870.70;1638.40;;;;;;5071327;28;20029;-70
2021/07/26 09:02:54;;;;;;;11.27;6.22;;;870.90;1664.00;;;;;;5079524;28;20367;-70
2021/07/26 09:05:21;;;;;;;15.48;6.63;;;871.10;1612.80;;;;;;5072288;28;20032;-70
2021/07/26 09:07:48;;;;;;;12.32;6.65;;;896.10;1587.20;;;;;;5065846;28;20024;-70
2021/07/26 09:10:42;;;;;;;10.15;6.07;;;896.80;1561.60;;;;;;5073799;28;20029;-70
2021/07/26 09:13:10;;;;;;;12.40;7.32;;;921.80;1587.20;;;;;;5068336;28;20017;-70
2021/07/26 09:15:37;;;;;;;13.40;6.97;;;896.80;1561.60;;;;;;5084974;28;20074;-70
2021/07/26 09:18:04;;;;;;;16.27;6.38;;;896.40;1587.20;;;;;;5069279;28;20792;-70
2021/07/26 09:20:32;;;;;;;9.25;6.00;;;896.50;1587.20;;;;;;5056142;28;20024;-70
2021/07/26 09:23:20;;;;;;;15.02;8.13;;;896.50;1587.20;;;;;;5071831;28;20028;-70
2021/07/26 09:25:48;;;;;;;12.40;7.25;;;896.50;1587.20;;;;;;5070034;28;20051;-70
2021/07/26 09:28:16;;;;;;;12.15;7.57;;;896.20;1587.20;;;;;;5071648;28;20052;-70
2021/07/26 09:30:48;;;;;;;9.02;6.53;;;896.80;1561.60;;;;;;5070867;28;20036;-70
2021/07/26 09:33:27;;;;;;;13.65;6.85;;;922.10;1561.60;;;;;;5063813;28;20056;-70
2021/07/26 09:36:19;;;;;;;10.20;6.75;;;922.40;1536.00;;;;;;5070641;28;20757;-70
2021/07/26 09:38:56;;;;;;;14.25;7.05;;;922.50;1536.00;;;;;;5064388;28;20024;-70
2021/07/26 09:41:44;;;;;;;11.90;6.50;;;947.60;1510.40;;;;;;5062669;28;20025;-70
2021/07/26 09:44:10;;;;;;;9.77;6.72;;;947.70;1510.40;;;;;;5066288;28;20032;-70
2021/07/26 09:46:39;;;;;;;15.32;7.45;;;947.20;1510.40;;;;;;5063201;28;20067;-70
2021/07/26 09:49:15;;;;;;;14.70;6.90;;;922.30;1536.00;;;;;;5064593;28;20430;-70
2021/07/26 09:51:42;;;;;;;16.83;6.65;;;947.50;1536.00;;;;;;5071190;28;20213;-70
2021/07/26 09:54:09;;;;;;;12.13;6.90;;;948.10;1536.00;;;;;;5068821;28;20490;-71
2021/07/26 09:56:35;;;;;;;14.38;7.68;;;972.80;1510.40;;;;;;5063174;28;20020;-70
2021/07/26 09:59:02;;;;;;;9.48;7.05;;;947.90;1510.40;;;;;;5068947;28;20033;-70
2021/07/26 10:01:29;;;;;;;19.83;8.52;;;972.90;1510.40;;;;;;5068128;28;20051;-70
2021/07/26 10:03:55;;;;;;;16.77;8.77;;;973.20;1484.80;;;;;;5068741;28;20031;-70
2021/07/26 10:06:22;;;;;;;8.48;7.43;;;973.10;1510.40;;;;;;5068696;28;20086;-70
2021/07/26 10:08:48;;;;;;;12.23;7.03;;;973.40;1510.40;;;;;;5072658;28;20031;-71
2021/07/26 10:11:14;;;;;;;10.27;7.50;;;973.40;1484.80;;;;;;5074866;28;20380;-70
2021/07/26 10:13:42;;;;;;;7.90;6.70;;;973.60;1484.80;;;;;;5071002;28;20025;-70
2021/07/26 10:16:18;;;;;;;11.75;6.95;;;998.40;1510.40;;;;;;5072717;28;20025;-70
2021/07/26 10:18:45;;;;;;;8.88;7.00;;;998.60;1484.80;;;;;;5072063;28;20380;-70
2021/07/26 10:21:19;;;;;;;8.63;6.80;;;998.70;1484.80;;;;;;5072511;28;20048;-70
2021/07/26 10:23:52;;;;;;;12.10;8.00;;;998.90;1484.80;;;;;;5079995;28;20028;-70
2021/07/26 10:26:20;;;;;;;7.63;6.75;;;999.20;1459.20;;;;;;5065735;28;20505;-71
2021/07/26 10:28:57;;;;;;;9.05;6.70;;;1024.10;1433.60;;;;;;5064502;28;20507;-70
2021/07/26 10:31:28;;;;;;;7.35;6.32;;;1024.20;1433.60;;;;;;5059679;28;20029;-71
2021/07/26 10:34:03;;;;;;;10.98;7.43;;;999.10;1459.20;;;;;;5066393;28;20033;-70
2021/07/26 10:36:52;;;;;;;11.38;6.65;;;999.00;1459.20;;;;;;5082455;28;20032;-71
2021/07/26 10:39:22;;;;;;;14.68;7.97;;;998.70;1459.20;;;;;;5064341;28;20424;-71
2021/07/26 10:41:48;;;;;;;10.48;6.75;;;973.70;1433.60;;;;;;5075703;28;20022;-70
2021/07/26 10:44:17;;;;;;;13.80;8.20;;;998.60;1433.60;;;;;;5061882;28;20025;-70
2021/07/26 10:47:03;;;;;;;11.82;6.97;;;998.60;1433.60;;;;;;5058353;28;20032;-70
2021/07/26 10:49:44;;;;;;;8.93;6.80;;;998.40;1433.60;;;;;;5057006;28;20025;-70
2021/07/26 10:52:21;;;;;;;11.52;6.63;;;973.50;1433.60;;;;;;5073896;28;20025;-70
2021/07/26 10:54:48;;;;;;;12.20;8.52;;;973.30;1459.20;;;;;;5064751;28;20048;-71
2021/07/26 10:57:14;;;;;;;10.63;7.00;;;973.40;1459.20;;;;;;5066423;28;20046;-70
2021/07/26 11:00:08;;;;;;;10.55;6.72;;;998.40;1459.20;;;;;;5062069;28;20441;-70
2021/07/26 11:02:35;;;;;;;9.35;7.22;;;998.70;1433.60;;;;;;5072013;28;20021;-70
2021/07/26 11:05:25;;;;;;;10.30;6.68;;;973.60;1433.60;;;;;;5074665;28;20359;-70
2021/07/26 11:08:13;;;;;;;11.05;7.55;;;973.40;1433.60;;;;;;5058643;28;20479;-70
2021/07/26 11:10:46;;;;;;;12.88;7.15;;;973.30;1459.20;;;;;;5070553;28;20491;-70
2021/07/26 11:13:18;;;;;;;14.13;7.88;;;972.90;1484.80;;;;;;5070006;28;20039;-70
2021/07/26 11:15:45;;;;;;;13.70;8.77;;;972.90;1484.80;;;;;;5066237;28;20068;-71
2021/07/26 11:18:20;;;;;;;12.52;7.25;;;972.90;1510.40;;;;;;5072674;28;20020;-71
2021/07/26 11:21:03;;;;;;;15.05;8.20;;;947.60;1510.40;;;;;;5062871;28;20079;-70
2021/07/26 11:23:45;;;;;;;9.52;7.10;;;947.70;1484.80;;;;;;5073656;28;20474;-71
2021/07/26 11:26:25;;;;;;;11.07;7.78;;;948.00;1484.80;;;;;;5069019;28;20032;-71
2021/07/26 11:29:02;;;;;;;12.68;9.30;;;973.60;1459.20;;;;;;5068132;28;20044;-71
2021/07/26 11:31:30;;;;;;;10.07;7.13;;;998.40;1484.80;;;;;;5063139;28;20032;-71
2021/07/26 11:34:07;;;;;;;10.60;8.13;;;998.60;1459.20;;;;;;5071575;28;20044;-71
2021/07/26 11:36:33;;;;;;;11.65;9.25;;;999.00;1433.60;;;;;;5069908;28;20478;-71
2021/07/26 11:39:04;;;;;;;13.02;8.95;;;1024.10;1433.60;;;;;;5081859;28;20077;-71
2021/07/26 11:41:31;;;;;;;11.38;7.55;;;1024.30;1408.00;;;;;;5075263;28;20024;-71
2021/07/26 11:43:57;;;;;;;11.52;9.00;;;1024.80;1382.40;;;;;;5069541;28;20871;-71
2021/07/26 11:46:24;;;;;;;10.32;7.32;;;1024.20;1408.00;;;;;;5069247;28;20025;-71
2021/07/26 11:48:57;;;;;;;11.95;7.68;;;1024.90;1382.40;;;;;;5068179;28;20020;-71
2021/07/26 11:51:31;;;;;;;10.05;8.13;;;1049.70;1382.40;;;;;;5069942;28;20073;-71
2021/07/26 11:54:05;;;;;;;8.65;7.20;;;1049.80;1382.40;;;;;;5066506;28;20016;-71
2021/07/26 11:56:31;;;;;;;10.40;7.47;;;1049.90;1382.40;;;;;;5063571;28;20059;-71
2021/07/26 11:59:17;;;;;;;10.80;7.30;;;1050.50;1382.40;;;;;;5055554;28;20053;-71
2021/07/26 12:01:54;;;;;;;11.63;8.32;;;1050.50;1331.20;;;;;;5070311;28;20499;-71
2021/07/26 12:04:20;;;;;;;11.85;6.90;;;1050.40;1356.80;;;;;;5059097;28;20024;-71
2021/07/26 12:06:54;;;;;;;11.88;7.93;;;1050.40;1356.80;;;;;;5066398;28;20017;-71
2021/07/26 12:09:21;;;;;;;9.50;7.47;;;1075.20;1356.80;;;;;;5063945;28;20025;-72
2021/07/26 12:11:46;;;;;;;12.95;9.20;;;1075.30;1331.20;;;;;;5059032;28;20020;-73
2021/07/26 12:14:31;;;;;;;15.45;8.13;;;1075.50;1331.20;;;;;;5058992;28;20114;-72
2021/07/26 12:17:03;;;;;;;14.23;8.23;;;1049.90;1356.80;;;;;;5067689;28;20482;-72